createdAt,value
2022-12-16T00:01:35.048Z,83.39
2022-12-16T00:04:01.877Z,83.27
2022-12-16T00:06:30.707Z,83.47
2022-12-16T00:08:57.346Z,83.20
2022-12-16T00:11:24.135Z,83.53
2022-12-16T00:13:51.164Z,83.87
2022-12-16T00:16:19.704Z,83.72
2022-12-16T00:18:46.794Z,83.72
2022-12-16T00:21:14.198Z,84.05
2022-12-16T00:23:42.014Z,83.79
2022-12-16T00:26:09.094Z,83.86
2022-12-16T00:28:35.881Z,83.88
2022-12-16T00:31:02.570Z,83.71
2022-12-16T00:33:29.421Z,83.37
2022-12-16T00:35:56.544Z,83.58
2022-12-16T00:38:24.068Z,83.43
2022-12-16T00:40:52.132Z,83.47
2022-12-16T00:43:20.582Z,83.80
2022-12-16T00:45:47.794Z,83.63
2022-12-16T00:48:14.523Z,83.50
2022-12-16T00:50:41.220Z,83.70
2022-12-16T00:53:08.340Z,83.62
2022-12-16T00:55:35.016Z,83.52
2022-12-16T00:58:01.708Z,83.24
2022-12-16T01:00:28.309Z,83.27
2022-12-16T01:02:55.047Z,83.23
2022-12-16T01:05:26.918Z,83.56
2022-12-16T01:07:54.707Z,83.26
2022-12-16T01:10:21.907Z,83.43
2022-12-16T01:12:48.523Z,83.43
2022-12-16T01:15:15.303Z,83.68
2022-12-16T01:17:43.077Z,83.21
2022-12-16T01:20:10.110Z,83.61
2022-12-16T01:22:36.865Z,83.58
2022-12-16T01:25:04.303Z,83.23
2022-12-16T01:27:31.150Z,83.58
2022-12-16T01:29:57.951Z,83.59
2022-12-16T01:32:24.605Z,83.43
2022-12-16T01:34:55.349Z,83.76
2022-12-16T01:37:23.089Z,83.58
2022-12-16T01:39:50.782Z,83.85
2022-12-16T01:42:19.940Z,84.43
2022-12-16T01:44:48.894Z,84.03
2022-12-16T01:47:21.034Z,83.66
2022-12-16T01:49:52.557Z,83.96
2022-12-16T01:52:26.329Z,83.68
2022-12-16T01:54:56.785Z,83.48
2022-12-16T01:57:27.304Z,83.49
2022-12-16T01:59:55.549Z,83.44
2022-12-16T02:02:23.306Z,83.72
2022-12-16T02:05:22.629Z,83.91
2022-12-16T02:08:12.373Z,83.86
2022-12-16T02:10:44.742Z,84.08
2022-12-16T02:13:35.943Z,84.19
2022-12-16T02:16:05.850Z,84.39
2022-12-16T02:18:38.702Z,84.29
2022-12-16T02:21:13.803Z,84.22
2022-12-16T02:23:59.001Z,84.09
2022-12-16T02:26:25.642Z,84.42
2022-12-16T02:29:04.552Z,84.40
2022-12-16T02:31:37.262Z,84.24
2022-12-16T02:34:03.872Z,84.06
2022-12-16T02:36:43.556Z,83.87
2022-12-16T02:39:21.981Z,84.07
2022-12-16T02:41:54.731Z,83.36
2022-12-16T02:44:26.469Z,83.81
2022-12-16T02:46:55.515Z,83.44
2022-12-16T02:49:22.337Z,83.57
2022-12-16T02:51:49.499Z,83.77
2022-12-16T02:54:17.697Z,83.95
2022-12-16T02:56:47.106Z,84.46
2022-12-16T02:59:19.096Z,84.28
2022-12-16T03:01:49.317Z,84.38
2022-12-16T03:04:19.569Z,84.24
2022-12-16T03:06:49.408Z,84.85
2022-12-16T03:09:17.731Z,84.87
2022-12-16T03:11:45.708Z,84.80
2022-12-16T03:14:14.788Z,84.63
2022-12-16T03:16:42.220Z,84.76
2022-12-16T03:19:11.885Z,84.67
2022-12-16T03:21:42.690Z,84.79
2022-12-16T03:24:10.964Z,84.92
2022-12-16T03:26:43.695Z,84.75
2022-12-16T03:29:19.730Z,84.81
2022-12-16T03:31:52.495Z,84.45
2022-12-16T03:34:22.057Z,84.64
2022-12-16T03:36:51.723Z,84.35
2022-12-16T03:39:20.570Z,84.60
2022-12-16T03:41:49.826Z,84.45
2022-12-16T03:44:17.492Z,84.66
2022-12-16T03:46:44.250Z,84.39
2022-12-16T03:49:10.954Z,84.66
2022-12-16T03:51:37.581Z,84.79
2022-12-16T03:54:04.331Z,84.99
2022-12-16T03:56:31.103Z,84.78
2022-12-16T03:58:57.742Z,85.13
2022-12-16T04:01:24.698Z,84.88
2022-12-16T04:03:51.533Z,84.94
2022-12-16T04:06:18.991Z,85.09
2022-12-16T04:08:48.798Z,85.12
2022-12-16T04:11:37.656Z,84.85
2022-12-16T04:14:22.717Z,85.07
2022-12-16T04:17:07.808Z,84.98
2022-12-16T04:19:55.239Z,85.04
2022-12-16T04:22:45.426Z,85.25
2022-12-16T04:25:21.112Z,85.44
2022-12-16T04:27:47.760Z,85.28
2022-12-16T04:30:21.022Z,85.56
2022-12-16T04:33:26.881Z,85.59
2022-12-16T04:36:11.948Z,85.44
2022-12-16T04:38:57.049Z,85.80
2022-12-16T04:41:42.083Z,85.90
2022-12-16T04:44:27.257Z,85.56
2022-12-16T04:47:12.155Z,85.34
2022-12-16T04:49:57.285Z,85.03
2022-12-16T04:52:42.810Z,85.23
2022-12-16T04:55:28.391Z,85.41
2022-12-16T04:58:14.677Z,85.64
2022-12-16T05:01:00.203Z,85.83
2022-12-16T05:03:45.344Z,85.40
2022-12-16T05:06:30.846Z,85.33
2022-12-16T05:09:15.984Z,85.20
2022-12-16T05:12:01.209Z,84.99
2022-12-16T05:14:46.143Z,85.06
2022-12-16T05:17:31.316Z,85.19
2022-12-16T05:20:16.893Z,85.25
2022-12-16T05:23:18.871Z,85.48
2022-12-16T05:26:03.905Z,85.49
2022-12-16T05:28:49.119Z,85.71
2022-12-16T05:31:34.389Z,85.66
2022-12-16T05:34:19.665Z,85.32
2022-12-16T05:37:04.920Z,85.58
2022-12-16T05:39:49.842Z,85.61
2022-12-16T05:42:34.885Z,85.38
2022-12-16T05:45:19.984Z,85.45
2022-12-16T05:48:07.687Z,85.53
2022-12-16T05:50:53.308Z,85.76
2022-12-16T05:53:40.943Z,85.80
2022-12-16T05:56:25.956Z,85.48
2022-12-16T05:59:11.146Z,85.30
2022-12-16T06:01:56.366Z,85.43
2022-12-16T06:04:41.539Z,85.56
2022-12-16T06:07:26.488Z,85.93
2022-12-16T06:10:11.578Z,85.94
2022-12-16T06:12:56.821Z,85.33
2022-12-16T06:15:41.894Z,85.27
2022-12-16T06:18:27.043Z,85.32
2022-12-16T06:21:12.036Z,85.23
2022-12-16T06:23:57.151Z,84.87
2022-12-16T06:26:42.315Z,85.00
2022-12-16T06:29:28.391Z,85.26
2022-12-16T06:32:13.641Z,85.26
2022-12-16T06:34:58.635Z,85.25
2022-12-16T06:37:44.864Z,85.31
2022-12-16T06:40:29.828Z,85.33
2022-12-16T06:43:15.064Z,85.08
2022-12-16T06:46:00.240Z,84.90
2022-12-16T06:48:45.283Z,84.74
2022-12-16T06:51:30.561Z,84.91
2022-12-16T06:54:15.895Z,85.33
2022-12-16T06:57:01.000Z,85.29
2022-12-16T06:59:56.819Z,85.78
2022-12-16T07:02:42.206Z,85.87
2022-12-16T07:05:29.010Z,85.51
2022-12-16T07:08:16.607Z,85.40
2022-12-16T07:11:15.624Z,85.60
2022-12-16T07:14:01.834Z,85.47
2022-12-16T07:16:47.066Z,85.35
2022-12-16T07:19:32.264Z,85.38
2022-12-16T07:22:20.584Z,85.73
2022-12-16T07:25:05.972Z,85.62
2022-12-16T07:27:52.501Z,85.38
2022-12-16T07:33:36.791Z,85.38
2022-12-16T07:36:22.587Z,85.90
2022-12-16T07:39:07.839Z,85.63
2022-12-16T07:41:53.492Z,85.50
2022-12-16T07:44:39.278Z,85.60
2022-12-16T07:47:24.585Z,85.37
2022-12-16T07:50:09.920Z,85.29
2022-12-16T07:52:55.708Z,85.28
2022-12-16T07:55:40.983Z,85.57
2022-12-16T07:58:26.026Z,85.46
2022-12-16T08:01:11.148Z,85.05
2022-12-16T08:03:56.325Z,84.84
2022-12-16T08:06:41.962Z,85.06
2022-12-16T08:09:27.170Z,85.01
2022-12-16T08:12:12.317Z,85.35
2022-12-16T08:14:58.986Z,85.32
2022-12-16T08:17:45.921Z,84.56
2022-12-16T08:20:31.696Z,84.60
2022-12-16T08:23:17.306Z,84.64
2022-12-16T08:26:02.869Z,84.81
2022-12-16T08:28:47.898Z,84.90
2022-12-16T08:31:33.220Z,84.52
2022-12-16T08:34:18.462Z,84.41
2022-12-16T08:37:03.527Z,84.12
2022-12-16T08:39:54.865Z,83.84
2022-12-16T08:42:53.893Z,83.66
2022-12-16T08:45:41.602Z,83.90
2022-12-16T08:48:26.643Z,91.42
2022-12-16T08:51:11.614Z,89.69
2022-12-16T08:53:56.709Z,87.29
2022-12-16T08:56:41.835Z,86.15
2022-12-16T08:59:26.885Z,84.82
2022-12-16T09:02:12.227Z,84.42
2022-12-16T09:04:57.756Z,84.26
2022-12-16T09:07:55.993Z,83.90
2022-12-16T09:10:42.835Z,83.80
2022-12-16T09:13:29.669Z,83.67
2022-12-16T09:16:19.222Z,83.14
2022-12-16T09:19:05.093Z,82.91
2022-12-16T09:21:50.122Z,82.89
2022-12-16T09:24:35.311Z,83.37
2022-12-16T09:27:20.283Z,83.22
2022-12-16T09:30:05.463Z,83.04
2022-12-16T09:32:50.496Z,82.47
2022-12-16T09:35:35.836Z,82.16
2022-12-16T09:38:20.812Z,82.19
2022-12-16T09:41:08.871Z,81.64
2022-12-16T09:44:03.982Z,81.50
2022-12-16T09:47:03.638Z,81.27
2022-12-16T09:50:03.141Z,80.77
2022-12-16T09:52:51.660Z,80.87
2022-12-16T09:55:49.649Z,81.47
2022-12-16T09:58:36.290Z,81.35
2022-12-16T10:01:21.432Z,81.24
2022-12-16T10:04:07.234Z,80.81
2022-12-16T10:07:05.589Z,80.56
2022-12-16T10:09:59.999Z,80.78
2022-12-16T10:12:51.156Z,81.28
2022-12-16T10:15:41.165Z,80.82
2022-12-16T10:18:36.525Z,80.19
2022-12-16T10:21:22.946Z,79.93
2022-12-16T10:24:15.167Z,79.78
2022-12-16T10:27:19.376Z,79.73
2022-12-16T10:30:04.944Z,80.11
2022-12-16T10:33:01.981Z,81.01
2022-12-16T10:35:55.648Z,80.58
2022-12-16T10:38:43.835Z,79.79
2022-12-16T10:41:31.467Z,79.11
2022-12-16T10:44:17.659Z,79.06
2022-12-16T10:47:05.095Z,78.66
2022-12-16T10:49:55.017Z,78.74
2022-12-16T10:52:40.371Z,78.88
2022-12-16T10:55:39.074Z,78.71
2022-12-16T10:58:24.338Z,79.72
2022-12-16T11:01:11.034Z,79.29
2022-12-16T11:03:57.701Z,78.59
2022-12-16T11:06:47.426Z,78.36
2022-12-16T11:09:49.023Z,78.17
2022-12-16T11:12:37.063Z,78.59
2022-12-16T11:15:41.360Z,77.67
2022-12-16T11:18:34.339Z,77.56
2022-12-16T11:21:29.569Z,77.71
2022-12-16T11:24:34.222Z,77.90
2022-12-16T11:27:21.309Z,77.81
2022-12-16T11:30:11.095Z,77.82
2022-12-16T11:32:57.274Z,78.08
2022-12-16T11:35:46.796Z,78.26
2022-12-16T11:38:51.228Z,77.98
2022-12-16T11:41:42.323Z,78.94
2022-12-16T11:44:32.011Z,78.81
2022-12-16T11:47:17.727Z,78.28
2022-12-16T11:50:03.478Z,78.17
2022-12-16T11:52:49.178Z,77.93
2022-12-16T11:56:04.982Z,78.07
2022-12-16T11:59:03.466Z,77.81
2022-12-16T12:02:07.383Z,77.73
2022-12-16T12:04:54.015Z,77.95
2022-12-16T12:07:48.814Z,77.84
2022-12-16T12:10:42.831Z,77.92
2022-12-16T12:13:46.036Z,77.71
2022-12-16T12:16:41.430Z,77.63
2022-12-16T12:19:33.523Z,77.84
2022-12-16T12:22:23.510Z,77.82
2022-12-16T12:25:08.611Z,77.63
2022-12-16T12:28:12.835Z,76.92
2022-12-16T12:31:18.316Z,76.62
2022-12-16T12:34:24.206Z,76.87
2022-12-16T12:37:13.221Z,77.25
2022-12-16T12:40:14.130Z,77.66
2022-12-16T12:43:11.039Z,77.42
2022-12-16T12:46:08.411Z,77.54
2022-12-16T12:48:57.496Z,77.36
2022-12-16T12:51:54.200Z,76.75
2022-12-16T12:54:48.344Z,77.44
2022-12-16T12:57:34.456Z,77.60
2022-12-16T13:00:24.578Z,77.97
2022-12-16T13:03:16.772Z,77.96
2022-12-16T13:06:02.277Z,78.07
2022-12-16T13:08:50.419Z,78.06
2022-12-16T13:11:35.712Z,77.85
2022-12-16T13:14:21.085Z,77.83
2022-12-16T13:17:20.293Z,77.12
2022-12-16T13:20:12.300Z,77.69
2022-12-16T13:23:17.427Z,77.95
2022-12-16T13:26:11.956Z,78.13
2022-12-16T13:28:58.579Z,77.86
2022-12-16T13:31:44.849Z,77.17
2022-12-16T13:34:33.059Z,76.96
2022-12-16T13:37:26.960Z,76.94
2022-12-16T13:40:33.546Z,76.94
2022-12-16T13:43:23.530Z,76.69
2022-12-16T13:46:18.734Z,76.80
2022-12-16T13:49:04.250Z,76.36
2022-12-16T13:51:59.950Z,76.95
2022-12-16T13:55:03.960Z,76.83
2022-12-16T13:57:51.298Z,76.90
2022-12-16T14:00:38.189Z,76.53
2022-12-16T14:03:28.935Z,76.60
2022-12-16T14:06:14.454Z,76.50
2022-12-16T14:09:22.917Z,76.50
2022-12-16T14:12:20.594Z,76.81
2022-12-16T14:15:14.114Z,76.77
2022-12-16T14:18:10.062Z,76.68
2022-12-16T14:21:05.195Z,77.25
2022-12-16T14:23:58.392Z,77.96
2022-12-16T14:26:45.974Z,77.69
2022-12-16T14:29:40.335Z,77.11
2022-12-16T14:32:40.856Z,76.51
2022-12-16T14:35:31.504Z,76.60
2022-12-16T14:38:16.664Z,76.49
2022-12-16T14:41:01.823Z,76.69
2022-12-16T14:43:46.891Z,76.68
2022-12-16T14:46:47.202Z,76.78
2022-12-16T14:49:40.509Z,76.84
2022-12-16T14:52:42.454Z,76.93
2022-12-16T14:55:33.748Z,76.96
2022-12-16T14:58:38.617Z,77.14
2022-12-16T15:01:34.259Z,77.28
2022-12-16T15:04:22.049Z,77.35
2022-12-16T15:07:09.140Z,77.47
2022-12-16T15:09:58.420Z,77.64
2022-12-16T15:12:46.717Z,77.64
2022-12-16T15:15:51.000Z,77.59
2022-12-16T15:18:57.359Z,77.29
2022-12-16T15:21:42.845Z,77.51
2022-12-16T15:24:29.222Z,77.47
2022-12-16T15:27:41.524Z,77.69
2022-12-16T15:30:45.748Z,78.21
2022-12-16T15:33:26.351Z,78.26
2022-12-16T15:36:11.724Z,78.26
2022-12-16T15:38:59.176Z,78.68
2022-12-16T15:41:51.915Z,78.99
2022-12-16T15:44:41.597Z,78.82
2022-12-16T15:47:49.924Z,79.24
2022-12-16T15:50:37.032Z,79.59
2022-12-16T15:53:41.195Z,79.69
2022-12-16T15:56:34.825Z,79.97
2022-12-16T15:59:33.156Z,80.38
2022-12-16T16:02:24.344Z,80.11
2022-12-16T16:05:12.412Z,80.30
2022-12-16T16:08:03.996Z,80.14
2022-12-16T16:10:50.759Z,80.01
2022-12-16T16:13:36.300Z,80.15
2022-12-16T16:16:22.131Z,80.41
2022-12-16T16:19:07.535Z,80.25
2022-12-16T16:21:52.727Z,80.86
2022-12-16T16:24:37.958Z,80.83
2022-12-16T16:27:27.971Z,80.50
2022-12-16T16:30:13.062Z,80.51
2022-12-16T16:32:58.250Z,80.70
2022-12-16T16:35:43.367Z,81.26
2022-12-16T16:38:29.870Z,81.08
2022-12-16T16:41:15.529Z,81.17
2022-12-16T16:44:01.003Z,81.20
2022-12-16T16:46:49.729Z,81.28
2022-12-16T16:49:39.444Z,81.77
2022-12-16T16:52:29.105Z,81.99
2022-12-16T16:55:14.068Z,82.00
2022-12-16T16:58:01.472Z,82.26
2022-12-16T17:00:46.646Z,82.44
2022-12-16T17:03:32.702Z,82.47
2022-12-16T17:06:18.811Z,82.78
2022-12-16T17:09:03.903Z,82.93
2022-12-16T17:11:49.671Z,83.17
2022-12-16T17:14:36.215Z,83.41
2022-12-16T17:17:21.739Z,83.65
2022-12-16T17:20:23.719Z,83.71
2022-12-16T17:23:08.769Z,83.10
2022-12-16T17:25:55.636Z,83.16
2022-12-16T17:28:41.825Z,83.34
2022-12-16T17:31:27.491Z,83.35
2022-12-16T17:34:12.555Z,83.28
2022-12-16T17:36:57.545Z,83.27
2022-12-16T17:39:42.680Z,83.30
2022-12-16T17:42:27.895Z,83.07
2022-12-16T17:45:32.784Z,83.21
2022-12-16T17:48:18.063Z,83.45
2022-12-16T17:51:03.606Z,83.80
2022-12-16T17:53:55.703Z,83.69
2022-12-16T17:56:43.983Z,83.83
2022-12-16T17:59:29.081Z,83.95
2022-12-16T18:02:14.309Z,83.90
2022-12-16T18:04:59.540Z,83.99
2022-12-16T18:07:45.155Z,84.33
2022-12-16T18:10:30.193Z,84.23
2022-12-16T18:13:15.244Z,84.30
2022-12-16T18:16:00.366Z,84.54
2022-12-16T18:18:46.445Z,84.71
2022-12-16T18:21:32.706Z,84.82
2022-12-16T18:24:17.734Z,84.83
2022-12-16T18:27:02.880Z,84.93
2022-12-16T18:29:47.889Z,84.98
2022-12-16T18:32:35.392Z,84.82
2022-12-16T18:35:21.030Z,84.82
2022-12-16T18:38:06.056Z,84.65
2022-12-16T18:40:51.207Z,84.24
2022-12-16T18:43:36.469Z,84.43
2022-12-16T18:46:22.009Z,84.56
2022-12-16T18:49:07.145Z,84.60
2022-12-16T18:51:52.325Z,84.70
2022-12-16T18:54:37.386Z,84.30
2022-12-16T18:57:22.433Z,84.85
2022-12-16T19:00:07.635Z,84.93
2022-12-16T19:02:54.320Z,85.04
2022-12-16T19:05:39.599Z,85.52
2022-12-16T19:08:24.751Z,85.44
2022-12-16T19:11:14.342Z,85.30
2022-12-16T19:13:59.818Z,85.33
2022-12-16T19:16:45.012Z,85.21
2022-12-16T19:19:30.096Z,85.27
2022-12-16T19:22:15.202Z,85.59
2022-12-16T19:25:00.293Z,85.44
2022-12-16T19:27:45.377Z,85.84
2022-12-16T19:30:30.483Z,85.98
2022-12-16T19:33:15.430Z,86.15
2022-12-16T19:36:00.661Z,85.95
2022-12-16T19:38:45.669Z,85.83
2022-12-16T19:41:34.363Z,85.54
2022-12-16T19:44:19.956Z,85.90
2022-12-16T19:47:05.205Z,85.73
2022-12-16T19:49:50.343Z,86.03
2022-12-16T19:52:35.313Z,86.14
2022-12-16T19:55:20.461Z,86.05
2022-12-16T19:58:05.456Z,86.29
2022-12-16T20:00:50.665Z,86.27
2022-12-16T20:03:37.577Z,86.37
2022-12-16T20:06:26.156Z,86.30
2022-12-16T20:09:12.300Z,86.02
2022-12-16T20:11:57.538Z,86.42
2022-12-16T20:14:43.008Z,86.41
2022-12-16T20:17:28.647Z,86.64
2022-12-16T20:20:14.307Z,86.42
2022-12-16T20:22:59.375Z,86.34
2022-12-16T20:25:45.030Z,86.81
2022-12-16T20:28:30.716Z,86.55
2022-12-16T20:31:19.942Z,86.63
2022-12-16T20:34:05.120Z,86.55
2022-12-16T20:36:50.344Z,86.78
2022-12-16T20:39:35.609Z,87.69
2022-12-16T20:42:20.687Z,88.40
2022-12-16T20:45:05.980Z,88.54
2022-12-16T20:47:51.062Z,88.54
2022-12-16T20:50:36.890Z,88.11
2022-12-16T20:53:22.059Z,87.50
2022-12-16T20:56:07.195Z,87.25
2022-12-16T20:58:56.133Z,87.90
2022-12-16T21:01:47.965Z,88.10
2022-12-16T21:04:46.735Z,88.12
2022-12-16T21:07:31.840Z,88.51
2022-12-16T21:10:16.937Z,88.45
2022-12-16T21:13:06.679Z,87.96
2022-12-16T21:15:52.062Z,87.81
2022-12-16T21:18:37.245Z,87.41
2022-12-16T21:21:22.311Z,87.28
2022-12-16T21:24:07.380Z,87.54
2022-12-16T21:26:52.393Z,87.82
2022-12-16T21:29:38.892Z,87.67
2022-12-16T21:32:24.152Z,88.32
2022-12-16T21:35:09.251Z,89.55
2022-12-16T21:38:01.016Z,89.68
2022-12-16T21:40:46.382Z,89.57
2022-12-16T21:43:33.888Z,89.94
2022-12-16T21:46:19.162Z,90.02
2022-12-16T21:49:04.375Z,89.65
2022-12-16T21:51:49.422Z,89.24
2022-12-16T21:54:34.725Z,89.15
2022-12-16T21:57:19.814Z,88.90
2022-12-16T22:00:04.897Z,88.56
2022-12-16T22:02:49.950Z,89.88
2022-12-16T22:05:35.109Z,89.52
2022-12-16T22:08:29.457Z,89.17
2022-12-16T22:11:15.008Z,89.35
2022-12-16T22:13:59.977Z,89.01
2022-12-16T22:16:45.191Z,89.30
2022-12-16T22:19:30.343Z,89.27
2022-12-16T22:22:15.389Z,89.70
2022-12-16T22:25:01.051Z,89.73
2022-12-16T22:27:51.673Z,89.74
2022-12-16T22:30:36.889Z,89.69
2022-12-16T22:33:22.060Z,89.00
2022-12-16T22:36:07.155Z,89.20
2022-12-16T22:38:52.796Z,89.02
2022-12-16T22:41:38.425Z,89.33
2022-12-16T22:44:23.421Z,89.69
2022-12-16T22:47:08.512Z,89.73
2022-12-16T22:49:55.961Z,90.71
2022-12-16T22:52:41.510Z,90.31
2022-12-16T22:55:27.089Z,90.07
2022-12-16T22:58:12.296Z,89.65
2022-12-16T23:00:58.301Z,89.42
2022-12-16T23:03:44.213Z,89.44
2022-12-16T23:06:29.961Z,89.05
2022-12-16T23:09:15.155Z,88.85
2022-12-16T23:12:00.263Z,88.86
2022-12-16T23:14:45.986Z,88.51
2022-12-16T23:17:31.498Z,88.52
2022-12-16T23:20:17.189Z,88.74
2022-12-16T23:23:02.294Z,88.51
2022-12-16T23:25:47.875Z,88.50
2022-12-16T23:28:33.065Z,88.43
2022-12-16T23:31:17.990Z,88.55
2022-12-16T23:34:03.272Z,88.54
2022-12-16T23:36:48.386Z,88.62
2022-12-16T23:39:33.612Z,88.52
2022-12-16T23:42:18.880Z,88.68
2022-12-16T23:45:04.012Z,88.53
2022-12-16T23:47:49.221Z,88.12
2022-12-16T23:50:34.201Z,88.64
2022-12-16T23:53:26.326Z,89.44
2022-12-16T23:56:18.483Z,89.38
2022-12-16T23:59:05.605Z,89.32
